Gloria — MNQL6 — position and weather

sailwx.info

Track history (hours):
 
Tides and Currents Weather Stations Pressure Air Temp Water Temp Dewpoint Dewpoint Depression Visibility Wind Speed Wind Dir Waves Ship Positions

Gloria

Last reported at 2018-Jun-21 13:09 UTC. Time now 2018-Jun-22 03:14 UTC.
Position N 37°07' W 008°32'.

Length 14 m.

Type: Sailing vessel. MMSI: 235086767.

Date/timePositionNaut miles runAvg speedWind from/ knotsBaromVisibWave heightAir tempDewpointWater temp
2018-Jun-21 13:09N 37°07' W 008°32'1 5.0
2018-Jun-21 12:57N 37°06' W 008°31'3 5.8
2018-Jun-21 12:30N 37°05' W 008°28'3 5.8
2018-Jun-21 11:58N 37°03' W 008°25'2 4.4
2018-Jun-21 11:29N 37°02' W 008°22'2 4.2
2018-Jun-21 11:00N 37°03' W 008°25'2 4.8
2018-Jun-21 10:30N 37°03' W 008°28'2 4.4
2018-Jun-21 10:00N 37°04' W 008°30'2 4.6
2018-Jun-21 09:30N 37°04' W 008°33'2 4.5
2018-Jun-21 09:01N 37°05' W 008°36'3 4.8
2018-Jun-21 08:28N 37°06' W 008°39'2 3.2
2018-Jun-21 08:00N 37°07' W 008°41'  
2018-Jun-15 09:49N 37°06' W 008°40'0 0.1
2018-Jun-15 09:23N 37°06' W 008°40'1 3.8
2018-Jun-15 09:00N 37°05' W 008°39'2 4.4
2018-Jun-15 08:30N 37°03' W 008°41'3 5.0
2018-Jun-15 07:54N 37°02' W 008°44'  
Track history (hours):
 
Tides and Currents Weather Stations Pressure Air Temp Water Temp Dewpoint Dewpoint Depression Visibility Wind Speed Wind Dir Waves Ship Positions

Gloria

Last reported at 2018-Jun-21 13:09 UTC. Time now 2018-Jun-22 03:14 UTC.
Position N 37°07' W 008°32'.

Length 14 m.

Type: Sailing vessel. MMSI: 235086767.

Date/timePositionNaut miles runAvg speedWind from/ knotsBaromVisibWave heightAir tempDewpointWater temp
2018-Jun-21 13:09N 37°07' W 008°32'1 5.0
2018-Jun-21 12:57N 37°06' W 008°31'3 5.8
2018-Jun-21 12:30N 37°05' W 008°28'3 5.8
2018-Jun-21 11:58N 37°03' W 008°25'2 4.4
2018-Jun-21 11:29N 37°02' W 008°22'2 4.2
2018-Jun-21 11:00N 37°03' W 008°25'2 4.8
2018-Jun-21 10:30N 37°03' W 008°28'2 4.4
2018-Jun-21 10:00N 37°04' W 008°30'2 4.6
2018-Jun-21 09:30N 37°04' W 008°33'2 4.5
2018-Jun-21 09:01N 37°05' W 008°36'3 4.8
2018-Jun-21 08:28N 37°06' W 008°39'2 3.2
2018-Jun-21 08:00N 37°07' W 008°41'  
2018-Jun-15 09:49N 37°06' W 008°40'0 0.1
2018-Jun-15 09:23N 37°06' W 008°40'1 3.8
2018-Jun-15 09:00N 37°05' W 008°39'2 4.4
2018-Jun-15 08:30N 37°03' W 008°41'3 5.0
2018-Jun-15 07:54N 37°02' W 008°44'  

Dump ship's entire track history